createdAt,value
2023-05-10T00:01:53.480Z,3.43
2023-05-10T00:04:20.710Z,4.27
2023-05-10T00:06:47.878Z,3.93
2023-05-10T00:09:15.427Z,3.83
2023-05-10T00:11:43.004Z,3.70
2023-05-10T00:14:10.072Z,3.93
2023-05-10T00:16:37.255Z,4.13
2023-05-10T00:19:04.441Z,4.30
2023-05-10T00:21:32.525Z,4.73
2023-05-10T00:23:59.666Z,4.60
2023-05-10T00:26:26.911Z,4.70
2023-05-10T00:28:53.980Z,4.70
2023-05-10T00:31:21.411Z,9.37
2023-05-10T00:33:48.583Z,6.53
2023-05-10T00:36:16.128Z,5.17
2023-05-10T00:38:43.413Z,6.80
2023-05-10T00:41:10.636Z,6.43
2023-05-10T00:43:37.901Z,5.47
2023-05-10T00:46:05.768Z,6.10
2023-05-10T00:48:33.260Z,7.13
2023-05-10T00:51:00.477Z,6.37
2023-05-10T00:53:28.139Z,5.87
2023-05-10T00:55:55.221Z,6.83
2023-05-10T00:58:24.246Z,5.93
2023-05-10T01:00:52.051Z,6.23
2023-05-10T01:03:19.408Z,6.10
2023-05-10T01:05:46.690Z,6.10
2023-05-10T01:08:13.756Z,5.33
2023-05-10T01:10:41.462Z,6.17
2023-05-10T01:13:08.606Z,6.37
2023-05-10T01:15:35.919Z,6.17
2023-05-10T01:18:04.182Z,7.13
2023-05-10T01:20:37.651Z,5.60
2023-05-10T01:23:14.933Z,5.80
2023-05-10T01:25:42.746Z,5.40
2023-05-10T01:28:19.361Z,5.60
2023-05-10T01:30:49.180Z,5.40
2023-05-10T01:33:16.311Z,4.80
2023-05-10T01:35:54.530Z,4.77
2023-05-10T01:38:31.426Z,5.13
2023-05-10T01:40:58.448Z,3.90
2023-05-10T01:43:28.110Z,3.43
2023-05-10T01:45:58.180Z,3.80
2023-05-10T01:48:26.338Z,3.30
2023-05-10T01:50:53.954Z,3.07
2023-05-10T01:53:22.192Z,3.57
2023-05-10T01:55:51.330Z,2.63
2023-05-10T01:58:24.493Z,2.50
2023-05-10T02:00:53.140Z,2.63
2023-05-10T02:03:22.678Z,5.30
2023-05-10T02:05:50.287Z,2.80
2023-05-10T02:08:17.605Z,3.33
2023-05-10T02:10:44.812Z,3.17
2023-05-10T02:13:12.985Z,2.93
2023-05-10T02:15:41.135Z,3.77
2023-05-10T02:18:09.592Z,2.53
2023-05-10T02:20:36.878Z,2.70
2023-05-10T02:23:05.417Z,3.00
2023-05-10T02:25:33.382Z,4.43
2023-05-10T02:28:01.653Z,2.90
2023-05-10T02:30:29.352Z,4.77
2023-05-10T02:32:57.543Z,3.23
2023-05-10T02:35:25.256Z,3.10
2023-05-10T02:37:52.445Z,3.70
2023-05-10T02:40:19.983Z,3.33
2023-05-10T02:42:50.114Z,4.60
2023-05-10T02:45:20.227Z,5.43
2023-05-10T02:47:47.401Z,3.50
2023-05-10T02:50:14.734Z,6.03
2023-05-10T02:52:44.529Z,6.77
2023-05-10T02:55:13.649Z,3.63
2023-05-10T02:57:43.901Z,5.97
2023-05-10T03:00:11.421Z,3.83
2023-05-10T03:02:38.531Z,5.77
2023-05-10T03:05:05.987Z,4.30
2023-05-10T03:07:33.400Z,5.40
2023-05-10T03:10:00.774Z,4.53
2023-05-10T03:12:40.077Z,4.80
2023-05-10T03:15:13.109Z,7.70
2023-05-10T03:17:43.850Z,4.33
2023-05-10T03:20:12.757Z,5.00
2023-05-10T03:22:42.711Z,6.33
2023-05-10T03:25:12.514Z,5.17
2023-05-10T03:27:41.805Z,5.87
2023-05-10T03:30:13.634Z,5.60
2023-05-10T03:32:40.891Z,5.93
2023-05-10T03:35:11.809Z,5.23
2023-05-10T03:37:39.349Z,5.80
2023-05-10T03:40:06.892Z,5.97
2023-05-10T03:42:33.996Z,7.27
2023-05-10T03:45:02.604Z,5.10
2023-05-10T03:47:32.954Z,6.70
2023-05-10T03:50:00.127Z,5.67
2023-05-10T03:52:28.745Z,6.67
2023-05-10T03:54:55.843Z,6.57
2023-05-10T03:57:22.953Z,6.33
2023-05-10T03:59:50.020Z,5.73
2023-05-10T04:02:17.122Z,5.83
2023-05-10T04:04:50.048Z,5.73
2023-05-10T04:07:17.121Z,6.40
2023-05-10T04:09:44.555Z,6.10
2023-05-10T04:12:11.668Z,5.97
2023-05-10T04:14:38.870Z,6.50
2023-05-10T04:17:06.601Z,7.00
2023-05-10T04:19:33.978Z,8.83
2023-05-10T04:22:01.132Z,5.80
2023-05-10T04:24:31.101Z,6.40
2023-05-10T04:26:58.385Z,5.80
2023-05-10T04:29:25.465Z,5.63
2023-05-10T04:32:10.381Z,5.87
2023-05-10T04:34:38.193Z,5.60
2023-05-10T04:37:05.330Z,5.73
2023-05-10T04:39:40.284Z,5.80
2023-05-10T04:42:09.264Z,6.23
2023-05-10T04:44:39.811Z,6.07
2023-05-10T04:49:35.549Z,6.07
2023-05-10T04:52:02.776Z,6.17
2023-05-10T04:54:29.821Z,6.00
2023-05-10T04:56:56.859Z,6.53
2023-05-10T04:59:24.015Z,5.43
2023-05-10T05:01:51.342Z,5.27
2023-05-10T05:04:18.514Z,6.10
2023-05-10T05:06:48.346Z,9.57
2023-05-10T05:09:15.489Z,6.17
2023-05-10T05:11:42.594Z,7.43
2023-05-10T05:14:09.804Z,6.63
2023-05-10T05:16:37.118Z,6.57
2023-05-10T05:19:05.624Z,7.13
2023-05-10T05:21:33.620Z,6.60
2023-05-10T05:24:01.048Z,8.63
2023-05-10T05:26:28.350Z,7.97
2023-05-10T05:28:55.709Z,8.17
2023-05-10T05:31:22.917Z,8.40
2023-05-10T05:33:50.058Z,8.67
2023-05-10T05:36:17.440Z,12.40
2023-05-10T05:38:44.590Z,9.33
2023-05-10T05:41:11.833Z,10.53
2023-05-10T05:43:38.971Z,11.50
2023-05-10T05:46:06.481Z,12.53
2023-05-10T05:48:33.897Z,15.00
2023-05-10T05:51:00.934Z,14.73
2023-05-10T05:53:28.088Z,12.83
2023-05-10T05:55:55.685Z,16.67
2023-05-10T05:58:23.585Z,14.90
2023-05-10T06:00:50.862Z,18.63
2023-05-10T06:03:18.144Z,16.70
2023-05-10T06:05:45.677Z,19.50
2023-05-10T06:08:12.756Z,20.63
2023-05-10T06:10:39.914Z,22.33
2023-05-10T06:13:07.054Z,23.97
2023-05-10T06:15:34.383Z,22.73
2023-05-10T06:18:01.641Z,23.23
2023-05-10T06:20:28.889Z,23.67
2023-05-10T06:22:56.044Z,21.93
2023-05-10T06:25:23.243Z,25.70
2023-05-10T06:27:53.731Z,25.53
2023-05-10T06:30:23.958Z,27.30
2023-05-10T06:32:51.116Z,26.23
2023-05-10T06:35:18.769Z,26.30
2023-05-10T06:37:46.040Z,24.27
2023-05-10T06:40:13.517Z,27.70
2023-05-10T06:42:40.724Z,29.20
2023-05-10T06:45:08.286Z,28.53
2023-05-10T06:47:37.994Z,25.00
2023-05-10T06:50:06.167Z,23.63
2023-05-10T06:52:33.213Z,28.40
2023-05-10T06:55:01.260Z,23.93
2023-05-10T06:57:31.768Z,24.60
2023-05-10T07:00:00.117Z,20.13
2023-05-10T07:02:27.520Z,20.00
2023-05-10T07:04:55.107Z,21.53
2023-05-10T07:07:26.527Z,21.57
2023-05-10T07:09:53.602Z,20.93
2023-05-10T07:12:20.790Z,25.23
2023-05-10T07:14:47.903Z,23.63
2023-05-10T07:17:15.097Z,25.73
2023-05-10T07:19:42.512Z,23.27
2023-05-10T07:22:09.714Z,31.43
2023-05-10T07:24:39.829Z,27.67
2023-05-10T07:27:06.972Z,23.27
2023-05-10T07:29:34.503Z,27.50
2023-05-10T07:32:02.167Z,29.50
2023-05-10T07:34:31.036Z,24.03
2023-05-10T07:37:00.103Z,27.20
2023-05-10T07:39:28.364Z,24.60
2023-05-10T07:41:56.252Z,26.30
2023-05-10T07:44:23.601Z,27.20
2023-05-10T07:46:50.938Z,28.67
2023-05-10T07:49:18.077Z,27.87
2023-05-10T07:51:45.429Z,27.10
2023-05-10T07:54:13.532Z,29.20
2023-05-10T07:56:43.113Z,28.17
2023-05-10T07:59:12.570Z,28.73
2023-05-10T08:01:39.934Z,30.03
2023-05-10T08:04:07.367Z,27.00
2023-05-10T08:06:34.704Z,28.23
2023-05-10T08:09:02.122Z,28.83
2023-05-10T08:11:29.368Z,24.83
2023-05-10T08:13:56.654Z,26.10
2023-05-10T08:16:24.482Z,25.20
2023-05-10T08:18:52.119Z,22.77
2023-05-10T08:21:19.330Z,24.57
2023-05-10T08:23:46.647Z,25.37
2023-05-10T08:26:13.934Z,27.07
2023-05-10T08:28:41.465Z,24.23
2023-05-10T08:31:08.719Z,26.17
2023-05-10T08:33:35.898Z,24.03
2023-05-10T08:36:03.435Z,30.83
2023-05-10T08:38:30.781Z,25.50
2023-05-10T08:40:58.104Z,24.33
2023-05-10T08:43:37.315Z,23.03
2023-05-10T08:46:06.971Z,25.30
2023-05-10T08:48:36.428Z,24.23
2023-05-10T08:51:04.674Z,26.93
2023-05-10T08:53:32.863Z,25.23
2023-05-10T08:56:00.401Z,24.70
2023-05-10T08:58:27.676Z,24.03
2023-05-10T09:00:55.003Z,24.77
2023-05-10T09:03:22.153Z,22.83
2023-05-10T09:05:50.099Z,26.20
2023-05-10T09:08:17.679Z,23.73
2023-05-10T09:10:45.363Z,24.27
2023-05-10T09:13:12.897Z,20.93
2023-05-10T09:15:40.262Z,25.83
2023-05-10T09:18:07.538Z,21.33
2023-05-10T09:20:34.667Z,23.60
2023-05-10T09:23:01.920Z,21.97
2023-05-10T09:25:29.180Z,23.67
2023-05-10T09:27:56.534Z,22.73
2023-05-10T09:30:27.772Z,21.50
2023-05-10T09:32:55.566Z,24.23
2023-05-10T09:35:25.898Z,20.07
2023-05-10T09:37:55.812Z,21.27
2023-05-10T09:40:24.002Z,23.00
2023-05-10T09:42:58.989Z,19.27
2023-05-10T09:45:26.865Z,21.13
2023-05-10T09:47:54.141Z,24.43
2023-05-10T09:50:21.678Z,21.70
2023-05-10T09:52:52.206Z,23.27
2023-05-10T09:55:20.829Z,22.50
2023-05-10T09:57:49.303Z,21.10
2023-05-10T10:00:20.544Z,21.73
2023-05-10T10:02:49.385Z,20.70
2023-05-10T10:05:17.721Z,20.27
2023-05-10T10:07:45.229Z,22.83
2023-05-10T10:10:13.459Z,21.10
2023-05-10T10:12:41.692Z,24.40
2023-05-10T10:15:09.317Z,22.00
2023-05-10T10:17:38.484Z,22.80
2023-05-10T10:20:05.815Z,21.23
2023-05-10T10:22:32.951Z,24.13
2023-05-10T10:25:03.323Z,20.73
2023-05-10T10:27:39.859Z,26.30
2023-05-10T10:30:21.898Z,23.53
2023-05-10T10:33:05.603Z,20.83
2023-05-10T10:35:43.285Z,22.90
2023-05-10T10:38:11.089Z,21.07
2023-05-10T10:40:41.674Z,20.17
2023-05-10T10:43:31.372Z,18.90
2023-05-10T10:46:15.290Z,21.27
2023-05-10T10:48:43.052Z,19.47
2023-05-10T10:51:12.758Z,20.33
2023-05-10T10:53:45.555Z,19.33
2023-05-10T10:56:16.623Z,18.55
2023-05-10T10:58:52.432Z,22.57
2023-05-10T11:01:20.150Z,16.83
2023-05-10T11:04:17.457Z,18.27
2023-05-10T11:06:45.093Z,20.23
2023-05-10T11:09:13.309Z,18.57
2023-05-10T11:11:53.661Z,18.97
2023-05-10T11:14:23.752Z,19.10
2023-05-10T11:16:53.752Z,17.87
2023-05-10T11:19:21.069Z,18.03
2023-05-10T11:22:06.492Z,17.20
2023-05-10T11:24:36.706Z,19.10
2023-05-10T11:27:06.538Z,19.70
2023-05-10T11:29:34.168Z,19.13
2023-05-10T11:32:02.211Z,14.23
2023-05-10T11:34:31.905Z,16.80
2023-05-10T11:36:59.324Z,13.30
2023-05-10T11:39:30.329Z,15.03
2023-05-10T11:41:57.676Z,16.47
2023-05-10T11:44:26.834Z,18.07
2023-05-10T11:46:53.927Z,17.17
2023-05-10T11:49:22.608Z,17.30
2023-05-10T11:51:49.718Z,18.63
2023-05-10T11:54:16.805Z,21.73
2023-05-10T11:56:44.043Z,22.83
2023-05-10T11:59:12.470Z,17.67
2023-05-10T12:01:39.696Z,17.87
2023-05-10T12:04:07.208Z,18.60
2023-05-10T12:06:39.724Z,19.80
2023-05-10T12:09:12.985Z,18.00
2023-05-10T12:11:44.024Z,15.53
2023-05-10T12:14:12.537Z,17.30
2023-05-10T12:16:39.688Z,17.90
2023-05-10T12:19:07.580Z,15.93
2023-05-10T12:21:34.716Z,14.57
2023-05-10T12:24:03.516Z,15.40
2023-05-10T12:26:31.971Z,15.37
2023-05-10T12:29:14.893Z,14.67
2023-05-10T12:31:58.139Z,13.47
2023-05-10T12:34:34.798Z,14.20
2023-05-10T12:37:02.614Z,14.17
2023-05-10T12:39:47.029Z,14.00
2023-05-10T12:42:14.182Z,13.80
2023-05-10T12:44:41.928Z,26.63
2023-05-10T12:47:09.534Z,12.87
2023-05-10T12:49:37.140Z,12.10
2023-05-10T12:52:04.613Z,11.53
2023-05-10T12:54:32.797Z,11.97
2023-05-10T12:56:59.996Z,11.40
2023-05-10T12:59:27.107Z,12.70
2023-05-10T13:01:54.412Z,12.23
2023-05-10T13:04:21.583Z,11.20
2023-05-10T13:06:48.754Z,11.17
2023-05-10T13:09:16.377Z,11.87
2023-05-10T13:11:43.547Z,10.63
2023-05-10T13:14:10.849Z,11.43
2023-05-10T13:16:38.031Z,11.40
2023-05-10T13:19:05.768Z,11.13
2023-05-10T13:21:32.935Z,13.23
2023-05-10T13:24:01.012Z,9.63
2023-05-10T13:26:28.282Z,9.70
2023-05-10T13:28:56.516Z,11.35
2023-05-10T13:31:23.700Z,10.57
2023-05-10T13:33:51.195Z,11.80
2023-05-10T13:36:18.435Z,15.03
2023-05-10T13:38:45.479Z,15.17
2023-05-10T13:41:12.690Z,13.90
2023-05-10T13:43:39.740Z,13.33
2023-05-10T13:46:06.925Z,18.03
2023-05-10T13:48:34.609Z,16.97
2023-05-10T13:51:02.290Z,18.93
2023-05-10T13:53:29.333Z,22.10
2023-05-10T13:55:56.469Z,19.43
2023-05-10T13:58:24.510Z,20.27
2023-05-10T14:00:51.696Z,20.50
2023-05-10T14:03:19.011Z,22.83
2023-05-10T14:05:46.712Z,20.57
2023-05-10T14:08:14.298Z,21.13
2023-05-10T14:10:41.421Z,17.23
2023-05-10T14:13:08.985Z,17.97
2023-05-10T14:15:36.054Z,18.60
2023-05-10T14:18:03.365Z,17.87
2023-05-10T14:20:30.942Z,15.80
2023-05-10T14:22:58.464Z,16.70
2023-05-10T14:25:25.743Z,20.37
2023-05-10T14:27:55.459Z,13.87
2023-05-10T14:30:22.656Z,16.70
2023-05-10T14:32:50.084Z,13.27
2023-05-10T14:35:19.489Z,14.57
2023-05-10T14:37:47.601Z,14.27
2023-05-10T14:40:16.072Z,14.03
2023-05-10T14:42:44.316Z,14.47
2023-05-10T14:45:12.187Z,17.33
2023-05-10T14:47:39.388Z,17.47
2023-05-10T14:50:07.049Z,17.87
2023-05-10T14:52:34.437Z,19.07
2023-05-10T14:55:02.363Z,19.00
2023-05-10T14:57:33.199Z,15.87
2023-05-10T15:00:00.431Z,19.10
2023-05-10T15:02:28.154Z,15.80
2023-05-10T15:04:55.792Z,17.27
2023-05-10T15:07:23.359Z,16.70
2023-05-10T15:09:50.527Z,14.00
2023-05-10T15:12:17.678Z,15.73
2023-05-10T15:14:44.822Z,15.87
2023-05-10T15:17:12.027Z,16.20
2023-05-10T15:19:39.232Z,18.13
2023-05-10T15:22:06.836Z,17.80
2023-05-10T15:24:34.037Z,16.07
2023-05-10T15:27:01.739Z,16.53
2023-05-10T15:29:28.932Z,13.70
2023-05-10T15:31:56.111Z,14.53
2023-05-10T15:34:26.033Z,14.20
2023-05-10T15:36:53.174Z,16.90
2023-05-10T15:39:20.246Z,17.20
2023-05-10T15:41:48.096Z,15.97
2023-05-10T15:44:15.493Z,14.33
2023-05-10T15:46:42.727Z,14.67
2023-05-10T15:49:09.918Z,13.30
2023-05-10T15:51:37.235Z,11.73
2023-05-10T15:54:08.329Z,10.20
2023-05-10T15:56:35.801Z,12.07
2023-05-10T15:59:03.676Z,9.13
2023-05-10T16:01:30.869Z,9.90
2023-05-10T16:03:58.298Z,10.27
2023-05-10T16:06:25.415Z,10.40
2023-05-10T16:08:54.643Z,9.90
2023-05-10T16:11:21.907Z,12.47
2023-05-10T16:13:49.060Z,11.10
2023-05-10T16:16:16.279Z,11.37
2023-05-10T16:18:43.652Z,12.47
2023-05-10T16:21:11.023Z,12.53
2023-05-10T16:23:38.363Z,16.43
2023-05-10T16:26:05.509Z,11.50
2023-05-10T16:28:32.655Z,12.57
2023-05-10T16:30:59.843Z,15.50
2023-05-10T16:33:27.053Z,11.87
2023-05-10T16:35:54.210Z,16.17
2023-05-10T16:38:21.847Z,16.60
2023-05-10T16:40:49.137Z,12.77
2023-05-10T16:43:16.373Z,13.73
2023-05-10T16:45:43.790Z,11.57
2023-05-10T16:48:10.901Z,11.43
2023-05-10T16:50:38.043Z,13.03
2023-05-10T16:53:08.278Z,11.63
2023-05-10T16:55:35.585Z,11.93
2023-05-10T16:58:03.213Z,11.93
2023-05-10T17:00:30.439Z,12.00
2023-05-10T17:02:57.597Z,12.87
2023-05-10T17:05:24.834Z,12.87
2023-05-10T17:07:51.996Z,12.20
2023-05-10T17:10:19.534Z,12.53
2023-05-10T17:12:46.797Z,15.53
2023-05-10T17:15:19.308Z,16.37
2023-05-10T17:17:47.912Z,13.53
2023-05-10T17:20:15.004Z,16.70
2023-05-10T17:22:42.459Z,11.43
2023-05-10T17:25:09.712Z,12.30
2023-05-10T17:27:37.086Z,14.10
2023-05-10T17:30:04.570Z,13.53
2023-05-10T17:32:31.936Z,11.27
2023-05-10T17:34:59.364Z,15.13
2023-05-10T17:37:26.487Z,17.07
2023-05-10T17:39:53.660Z,13.63
2023-05-10T17:42:20.872Z,13.43
2023-05-10T17:44:48.127Z,15.83
2023-05-10T17:47:15.346Z,15.57
2023-05-10T17:49:42.468Z,13.20
2023-05-10T17:52:09.702Z,14.33
2023-05-10T17:54:36.789Z,15.20
2023-05-10T17:57:03.956Z,14.70
2023-05-10T17:59:31.052Z,13.70
2023-05-10T18:01:58.163Z,12.97
2023-05-10T18:04:25.899Z,14.63
2023-05-10T18:07:00.940Z,17.97
2023-05-10T18:09:28.556Z,15.10
2023-05-10T18:11:55.803Z,15.63
2023-05-10T18:14:36.469Z,14.20
2023-05-10T18:17:06.697Z,13.80
2023-05-10T18:19:34.063Z,15.13
2023-05-10T18:22:01.405Z,12.60
2023-05-10T18:24:38.448Z,12.40
2023-05-10T18:27:06.792Z,15.37
2023-05-10T18:29:34.124Z,15.23
2023-05-10T18:32:01.279Z,12.47
2023-05-10T18:34:28.836Z,17.03
2023-05-10T18:36:56.180Z,16.30
2023-05-10T18:39:23.280Z,16.53
2023-05-10T18:41:50.702Z,14.97
2023-05-10T18:44:18.860Z,14.07
2023-05-10T18:46:51.009Z,15.73
2023-05-10T18:49:19.318Z,12.63
2023-05-10T18:51:47.179Z,16.37
2023-05-10T18:54:15.277Z,18.77
2023-05-10T18:56:45.009Z,15.70
2023-05-10T18:59:12.496Z,11.57
2023-05-10T19:01:41.453Z,15.13
2023-05-10T19:04:09.029Z,14.53
2023-05-10T19:06:36.931Z,14.57
2023-05-10T19:09:04.206Z,12.07
2023-05-10T19:11:34.023Z,15.50
2023-05-10T19:14:01.682Z,13.53
2023-05-10T19:16:30.358Z,13.27
2023-05-10T19:18:57.764Z,12.57
2023-05-10T19:21:25.332Z,16.97
2023-05-10T19:23:53.561Z,12.53
2023-05-10T19:26:21.398Z,11.50
2023-05-10T19:28:48.569Z,12.47
2023-05-10T19:31:15.759Z,10.63
2023-05-10T19:33:42.909Z,11.47
2023-05-10T19:36:10.033Z,11.87
2023-05-10T19:38:37.918Z,10.60
2023-05-10T19:41:05.180Z,9.73
2023-05-10T19:43:37.723Z,9.50
2023-05-10T19:46:05.093Z,10.53
2023-05-10T19:48:32.253Z,10.63
2023-05-10T19:51:03.334Z,11.63
2023-05-10T19:53:31.124Z,10.17
2023-05-10T19:56:02.887Z,8.23
2023-05-10T19:58:30.072Z,11.03
2023-05-10T20:00:57.253Z,8.17
2023-05-10T20:03:24.449Z,8.80
2023-05-10T20:05:51.590Z,8.77
2023-05-10T20:08:18.745Z,12.43
2023-05-10T20:10:46.086Z,12.47
2023-05-10T20:13:13.414Z,10.40
2023-05-10T20:15:40.488Z,12.23
2023-05-10T20:18:07.714Z,7.97
2023-05-10T20:20:34.813Z,7.67
2023-05-10T20:23:02.043Z,9.17
2023-05-10T20:25:29.115Z,8.70
2023-05-10T20:27:56.344Z,8.57
2023-05-10T20:30:23.431Z,9.20
2023-05-10T20:32:50.554Z,7.13
2023-05-10T20:35:17.762Z,7.47
2023-05-10T20:37:44.853Z,7.83
2023-05-10T20:40:12.092Z,8.93
2023-05-10T20:42:39.155Z,8.93
2023-05-10T20:45:06.543Z,10.97
2023-05-10T20:47:34.054Z,9.03
2023-05-10T20:50:01.142Z,8.17
2023-05-10T20:52:28.211Z,9.43
2023-05-10T20:54:55.304Z,8.50
2023-05-10T20:57:22.405Z,10.83
2023-05-10T20:59:51.077Z,9.87
2023-05-10T21:02:18.296Z,13.73
2023-05-10T21:04:45.505Z,11.27
2023-05-10T21:07:12.683Z,9.40
2023-05-10T21:09:39.821Z,11.20
2023-05-10T21:12:07.114Z,9.37
2023-05-10T21:14:35.185Z,11.80
2023-05-10T21:17:02.283Z,15.43
2023-05-10T21:19:29.385Z,17.93
2023-05-10T21:21:57.482Z,16.93
2023-05-10T21:24:24.621Z,16.47
2023-05-10T21:26:52.077Z,13.87
2023-05-10T21:32:00.438Z,15.63
2023-05-10T21:34:27.798Z,14.13
2023-05-10T21:36:55.405Z,17.90
2023-05-10T21:39:22.572Z,19.70
2023-05-10T21:41:49.906Z,16.93
2023-05-10T21:44:17.034Z,16.13
2023-05-10T21:46:44.385Z,13.50
2023-05-10T21:49:11.561Z,14.87
2023-05-10T21:51:38.922Z,16.23
2023-05-10T21:54:06.166Z,12.57
2023-05-10T21:56:33.326Z,15.87
2023-05-10T21:59:00.795Z,11.83
2023-05-10T22:01:28.236Z,12.17
2023-05-10T22:03:55.711Z,12.97
2023-05-10T22:06:22.776Z,11.03
2023-05-10T22:08:49.894Z,12.20
2023-05-10T22:11:17.011Z,12.73
2023-05-10T22:13:44.089Z,11.97
2023-05-10T22:16:11.129Z,13.53
2023-05-10T22:18:38.260Z,12.03
2023-05-10T22:21:05.562Z,11.33
2023-05-10T22:23:45.570Z,13.10
2023-05-10T22:26:20.328Z,13.37
2023-05-10T22:28:48.572Z,15.90
2023-05-10T22:31:15.698Z,15.60
2023-05-10T22:33:43.663Z,14.10
2023-05-10T22:36:10.748Z,14.60
2023-05-10T22:38:37.896Z,15.00
2023-05-10T22:41:04.967Z,14.43
2023-05-10T22:43:32.422Z,13.83
2023-05-10T22:45:59.669Z,13.77
2023-05-10T22:48:27.127Z,13.23
2023-05-10T22:50:54.178Z,13.93
2023-05-10T22:53:21.331Z,15.20
2023-05-10T22:55:51.362Z,13.67
2023-05-10T22:58:18.718Z,13.20
2023-05-10T23:00:46.169Z,12.80
2023-05-10T23:03:13.526Z,15.80
2023-05-10T23:05:40.675Z,13.63
2023-05-10T23:08:07.793Z,14.50
2023-05-10T23:10:35.190Z,14.87
2023-05-10T23:13:02.597Z,15.50
2023-05-10T23:15:29.792Z,13.80
2023-05-10T23:18:00.906Z,15.40
2023-05-10T23:20:29.012Z,13.67
2023-05-10T23:22:56.456Z,12.33
2023-05-10T23:25:23.600Z,12.53
2023-05-10T23:27:50.764Z,12.33
2023-05-10T23:30:18.031Z,13.30
2023-05-10T23:32:45.489Z,14.97
2023-05-10T23:35:12.630Z,11.07
2023-05-10T23:37:40.995Z,11.20
2023-05-10T23:40:08.664Z,11.47
2023-05-10T23:42:35.858Z,10.93
2023-05-10T23:45:02.975Z,12.30
2023-05-10T23:47:30.080Z,11.80
2023-05-10T23:49:57.264Z,12.03
2023-05-10T23:52:27.172Z,10.87
2023-05-10T23:54:54.738Z,14.83
2023-05-10T23:57:21.925Z,12.83
2023-05-10T23:59:49.037Z,12.30
